Venta Maersk — OWHH2 — position and weather

sailwx.info

Track history (hours):
 
Tides and Currents Weather Stations Pressure Air Temp Water Temp Dewpoint Dewpoint Depression Visibility Wind Speed Wind Dir Waves Ship Positions

Venta Maersk

Last reported at 2018-Dec-17 04:30 UTC. Time now 2018-Dec-17 04:38 UTC.
Position N 53°35' E 008°09'.

Length 200 m; draft 10.2 m.

Type: Ship (hazmat cat A). MMSI: 219115000.

Date/timePositionNaut miles runAvg speedWind from/ knotsBaromVisibWave heightAir tempDewpointWater temp
2018-Dec-17 04:30N 53°35' E 008°09'0 0.5
2018-Dec-17 04:00N 53°35' E 008°10'1 2.4
2018-Dec-17 03:30N 53°36' E 008°09'510.5
2018-Dec-17 03:00N 53°41' E 008°05'816.1
2018-Dec-17 02:30N 53°48' E 007°59'714.4
2018-Dec-17 02:00N 53°52' E 007°49'612.5
2018-Dec-17 01:30N 53°55' E 007°40'18413.9
2018-Dec-16 12:18N 56°60' E 007°50'415.2
2018-Dec-16 12:00N 57°03' E 007°53'815.1
2018-Dec-16 11:30N 57°10' E 007°59'815.3
2018-Dec-16 11:00N 57°16' E 008°08'816.5
2018-Dec-16 10:30N 57°21' E 008°21'816.6
2018-Dec-16 10:00N 57°26' E 008°34'816.6
2018-Dec-16 09:30N 57°30' E 008°46'816.5
2018-Dec-16 09:00N 57°35' E 008°59'816.4
2018-Dec-16 08:30N 57°40' E 009°11'816.4
2018-Dec-16 08:00N 57°43' E 009°25'816.2
2018-Dec-16 07:30N 57°45' E 009°40'816.7
2018-Dec-16 07:00N 57°46' E 009°56'817.0
2018-Dec-16 06:30N 57°48' E 010°11'816.5
2018-Dec-16 06:00N 57°50' E 010°26'816.6
2018-Dec-16 05:30N 57°50' E 010°42'917.2
2018-Dec-16 05:00N 57°45' E 010°55'917.1
2018-Dec-16 04:30N 57°40' E 011°07'917.2
2018-Dec-16 04:00N 57°34' E 011°19'917.3
2018-Dec-16 03:30N 57°27' E 011°28'917.5
2018-Dec-16 03:00N 57°18' E 011°34'917.5
2018-Dec-16 02:30N 57°10' E 011°39'917.3
2018-Dec-16 02:00N 57°02' E 011°44'10414.9
2018-Dec-15 19:01N 55°20' E 011°02'017.6
2018-Dec-15 19:00N 55°20' E 011°02'816.0
2018-Dec-15 18:31N 55°12' E 011°05'714.8
2018-Dec-15 18:00N 55°05' E 010°59'815.3
2018-Dec-15 17:30N 54°58' E 010°57'816.6
2018-Dec-15 17:01N 54°51' E 010°50'815.4
2018-Dec-15 16:30N 54°43' E 010°47'612.4
2018-Dec-15 16:00N 54°38' E 010°53'714.5
2018-Dec-15 15:30N 54°37' E 011°05'816.1
2018-Dec-15 15:01N 54°34' E 011°18'917.7
2018-Dec-15 14:30N 54°30' E 011°32'917.4
2018-Dec-15 14:00N 54°26' E 011°46'917.5
2018-Dec-15 13:30N 54°26' E 012°01'915.1
2018-Dec-15 12:55N 54°31' E 012°13'717.0
2018-Dec-15 12:30N 54°37' E 012°20'7416.9
2018-Dec-15 08:08N 55°13' E 014°12'2716.9
2018-Dec-15 06:32N 55°30' E 014°50'117.2
2018-Dec-15 06:29N 55°30' E 014°51'817.4
2018-Dec-15 06:00N 55°34' E 015°04'917.5
2018-Dec-15 05:30N 55°38' E 015°18'917.6
2018-Dec-15 05:00N 55°43' E 015°31'917.5
2018-Dec-15 04:30N 55°47' E 015°44'917.6
2018-Dec-15 04:00N 55°53' E 015°57'917.7
2018-Dec-15 03:30N 55°58' E 016°10'918.0
2018-Dec-15 03:00N 56°02' E 016°23'917.9
2018-Dec-15 02:31N 56°07' E 016°37'917.5
2018-Dec-15 02:00N 56°12' E 016°50'917.3
2018-Dec-15 01:30N 56°17' E 017°02'  
2018-Dec-12 09:29N 59°16' E 021°56'510.0
2018-Dec-12 08:58N 59°19' E 022°04'510.2
2018-Dec-12 08:29N 59°22' E 022°11'510.3
2018-Dec-12 08:00N 59°26' E 022°19'510.4
2018-Dec-12 07:30N 59°29' E 022°26'510.2
2018-Dec-12 07:00N 59°32' E 022°34'510.0
2018-Dec-12 06:30N 59°35' E 022°42'4 7.3
2018-Dec-12 06:00N 59°33' E 022°49'510.9
2018-Dec-12 05:30N 59°35' E 022°59'611.1
2018-Dec-12 05:00N 59°36' E 023°10'511.1
2018-Dec-12 04:30N 59°38' E 023°20'611.1
2018-Dec-12 04:00N 59°39' E 023°31'611.1
2018-Dec-12 03:30N 59°41' E 023°42'611.1
2018-Dec-12 03:00N 59°42' E 023°52'511.0
2018-Dec-12 02:30N 59°44' E 024°03'611.0
2018-Dec-12 02:00N 59°45' E 024°13'511.0
2018-Dec-12 01:30N 59°47' E 024°24'510.8
2018-Dec-12 01:00N 59°48' E 024°34'510.8
2018-Dec-12 00:30N 59°50' E 024°44'510.8
2018-Dec-12 00:00N 59°51' E 024°55'510.8
2018-Dec-11 23:30N 59°52' E 025°05'510.9
2018-Dec-11 23:00N 59°53' E 025°16'510.9
2018-Dec-11 22:30N 59°53' E 025°27'510.7
2018-Dec-11 22:00N 59°54' E 025°38'510.9
2018-Dec-11 21:30N 59°55' E 025°48'711.1
2018-Dec-11 20:50N 59°58' E 026°02'611.2
2018-Dec-11 20:21N 60°01' E 026°11'411.6
2018-Dec-11 20:00N 60°03' E 026°18'611.5
2018-Dec-11 19:30N 60°06' E 026°27'611.3
2018-Dec-11 19:00N 60°10' E 026°36'611.1
2018-Dec-11 18:31N 60°13' E 026°45'713.9
2018-Dec-11 18:01N 60°19' E 026°53'612.0
2018-Dec-11 17:30N 60°25' E 026°55'0 0.7
2018-Dec-11 16:59N 60°25' E 026°55'0 0.0
2018-Dec-11 16:29N 60°25' E 026°55'0 0.0
2018-Dec-11 15:59N 60°25' E 026°55'0 0.0
2018-Dec-11 15:29N 60°25' E 026°55'0 0.0
2018-Dec-11 14:59N 60°25' E 026°55'0 0.0
2018-Dec-11 14:29N 60°25' E 026°55'0 0.0
2018-Dec-11 13:59N 60°25' E 026°55'0 0.0
2018-Dec-11 13:29N 60°25' E 026°55'0 0.0
2018-Dec-11 12:59N 60°25' E 026°55'0 0.0
2018-Dec-11 12:29N 60°25' E 026°55'0 0.0
2018-Dec-11 11:59N 60°25' E 026°55'0 0.0
2018-Dec-11 11:29N 60°25' E 026°55'0 0.0
2018-Dec-11 10:59N 60°25' E 026°55'0 0.0
2018-Dec-11 10:29N 60°25' E 026°55'0 0.0
2018-Dec-11 09:59N 60°25' E 026°55'0 0.0
2018-Dec-11 09:29N 60°25' E 026°55'0 0.0
2018-Dec-11 08:59N 60°25' E 026°55'0 0.0
2018-Dec-11 08:29N 60°25' E 026°55'0 0.0
2018-Dec-11 07:59N 60°25' E 026°55'0 0.0
2018-Dec-11 07:29N 60°25' E 026°55'0 0.0
2018-Dec-11 06:59N 60°25' E 026°55'0 0.0
2018-Dec-11 06:29N 60°25' E 026°55'0 0.0
2018-Dec-11 05:59N 60°25' E 026°55'0 0.0
2018-Dec-11 05:29N 60°25' E 026°55'0 0.0
2018-Dec-11 04:59N 60°25' E 026°55'0 0.0
2018-Dec-11 04:29N 60°25' E 026°55'0 0.0
2018-Dec-11 03:59N 60°25' E 026°55'0 0.0
2018-Dec-11 03:29N 60°25' E 026°55'0 0.0
2018-Dec-11 02:59N 60°25' E 026°55'0 0.0
2018-Dec-11 02:29N 60°25' E 026°55'0 0.0
2018-Dec-11 01:59N 60°25' E 026°55'0 0.0
2018-Dec-11 01:29N 60°25' E 026°55'0 0.0
2018-Dec-11 00:56N 60°25' E 026°55'0 0.0
2018-Dec-11 00:29N 60°25' E 026°55'0 0.0
2018-Dec-10 23:59N 60°25' E 026°55'0 0.0
2018-Dec-10 23:29N 60°25' E 026°55'0 0.0
2018-Dec-10 22:59N 60°25' E 026°55'0 0.0
2018-Dec-10 22:29N 60°25' E 026°55'0 0.0
2018-Dec-10 21:59N 60°25' E 026°55'0 0.0
2018-Dec-10 21:29N 60°25' E 026°55'0 0.0
2018-Dec-10 20:59N 60°25' E 026°55'0 0.0
2018-Dec-10 20:29N 60°25' E 026°55'0 0.0
2018-Dec-10 19:59N 60°25' E 026°55'0 0.0
2018-Dec-10 19:29N 60°25' E 026°55'0 0.0
2018-Dec-10 18:59N 60°25' E 026°55'0 0.0
2018-Dec-10 18:29N 60°25' E 026°55'0 0.0
2018-Dec-10 17:59N 60°25' E 026°55'0 0.0
2018-Dec-10 17:29N 60°25' E 026°55'0 0.0
2018-Dec-10 16:59N 60°25' E 026°55'0 0.0
2018-Dec-10 16:29N 60°25' E 026°55'0 0.0
2018-Dec-10 15:59N 60°25' E 026°55'0 0.0
2018-Dec-10 15:29N 60°25' E 026°55'0 0.0
2018-Dec-10 14:59N 60°25' E 026°55'0 0.0
2018-Dec-10 14:29N 60°25' E 026°55'0 0.0
2018-Dec-10 13:59N 60°25' E 026°55'0 0.0
2018-Dec-10 13:29N 60°25' E 026°55'0 0.0
2018-Dec-10 12:59N 60°25' E 026°55'0 0.0
2018-Dec-10 12:29N 60°25' E 026°55'0 0.0
2018-Dec-10 11:59N 60°25' E 026°55'0 0.0
2018-Dec-10 11:29N 60°25' E 026°55'0 0.0
2018-Dec-10 10:59N 60°25' E 026°55'0 0.0
2018-Dec-10 10:29N 60°25' E 026°55'0 0.0
2018-Dec-10 09:59N 60°25' E 026°55'0 0.0
2018-Dec-10 09:29N 60°25' E 026°55'0 0.0
2018-Dec-10 08:59N 60°25' E 026°55'0 0.0
2018-Dec-10 08:30N 60°25' E 026°55'1 1.8
2018-Dec-10 08:01N 60°24' E 026°54'510.6
2018-Dec-10 07:30N 60°22' E 026°44'815.6
2018-Dec-10 07:00N 60°17' E 026°32'815.2
2018-Dec-10 06:31N 60°11' E 026°22'3 6.5
2018-Dec-10 06:01N 60°09' E 026°19'3 6.1
2018-Dec-10 05:31N 60°06' E 026°15'3 6.1
2018-Dec-10 05:00N 60°04' E 026°11'13 7.7
2018-Dec-10 03:19N 59°54' E 025°55'810.1
2018-Dec-10 02:31N 59°52' E 025°39'510.3
2018-Dec-10 02:01N 59°51' E 025°29'510.5
2018-Dec-10 01:30N 59°49' E 025°19'510.4
2018-Dec-10 01:00N 59°48' E 025°09'510.4
2018-Dec-10 00:31N 59°47' E 024°59'510.3
2018-Dec-10 00:00N 59°46' E 024°49'510.2
2018-Dec-09 23:30N 59°45' E 024°39'510.1
2018-Dec-09 23:01N 59°44' E 024°29'510.3
2018-Dec-09 22:31N 59°43' E 024°19'510.3
2018-Dec-09 22:00N 59°42' E 024°09'510.2
2018-Dec-09 21:30N 59°40' E 023°60'510.6
2018-Dec-09 21:00N 59°38' E 023°50'611.1
2018-Dec-09 20:31N 59°36' E 023°40'510.9
2018-Dec-09 20:01N 59°34' E 023°30'510.7
2018-Dec-09 19:30N 59°33' E 023°20'510.8
2018-Dec-09 19:00N 59°31' E 023°09'510.6
2018-Dec-09 18:30N 59°29' E 022°59'510.5
2018-Dec-09 18:01N 59°28' E 022°49'510.1
2018-Dec-09 17:31N 59°27' E 022°40'5 9.8
2018-Dec-09 17:00N 59°25' E 022°31'26416.5
2018-Dec-09 01:00N 56°09' E 016°60'917.9
2018-Dec-09 00:30N 56°03' E 016°47'918.0
2018-Dec-09 00:01N 55°58' E 016°34'918.0
2018-Dec-08 23:30N 55°54' E 016°21'918.0
2018-Dec-08 23:00N 55°49' E 016°07'917.9
2018-Dec-08 22:30N 55°44' E 015°53'917.9
2018-Dec-08 22:01N 55°40' E 015°40'918.0
2018-Dec-08 21:31N 55°35' E 015°26'918.1
2018-Dec-08 21:00N 55°31' E 015°11'2517.9
2018-Dec-08 19:37N 55°19' E 014°33'218.2
2018-Dec-08 19:30N 55°18' E 014°30'918.0
2018-Dec-08 19:00N 55°11' E 014°21'918.1
2018-Dec-08 18:31N 55°03' E 014°12'6018.1
2018-Dec-08 15:12N 54°42' E 012°34'418.3
2018-Dec-08 14:58N 54°40' E 012°28'817.8
2018-Dec-08 14:30N 54°35' E 012°16'1217.5
2018-Dec-08 13:50N 54°25' E 012°08'618.6
2018-Dec-08 13:31N 54°24' E 011°57'917.9
2018-Dec-08 13:01N 54°26' E 011°42'918.4
2018-Dec-08 12:30N 54°30' E 011°27'1019.7
2018-Dec-08 12:00N 54°34' E 011°13'919.0
2018-Dec-08 11:30N 54°39' E 010°58'714.4
2018-Dec-08 11:00N 54°44' E 010°49'713.1
2018-Dec-08 10:30N 54°50' E 010°50'917.5
2018-Dec-08 10:00N 54°58' E 010°57'917.9
2018-Dec-08 09:30N 55°07' E 010°59'816.1
2018-Dec-08 09:00N 55°14' E 011°06'918.4
2018-Dec-08 08:30N 55°23' E 011°01'9213.9
2018-Dec-08 01:52N 56°51' E 011°47'616.9
2018-Dec-08 01:30N 56°57' E 011°44'817.0
2018-Dec-08 01:00N 57°05' E 011°39'816.6
2018-Dec-08 00:30N 57°13' E 011°34'816.7
2018-Dec-08 00:00N 57°21' E 011°28'917.5
2018-Dec-07 23:30N 57°29' E 011°21'917.9
2018-Dec-07 23:00N 57°35' E 011°09'918.9
2018-Dec-07 22:30N 57°41' E 010°56'917.7
2018-Dec-07 22:00N 57°47' E 010°43'1019.3
2018-Dec-07 21:30N 57°47' E 010°25'1019.4
2018-Dec-07 21:00N 57°46' E 010°07'1018.7
2018-Dec-07 20:30N 57°45' E 009°49'918.6
2018-Dec-07 20:00N 57°44' E 009°32'1018.9
2018-Dec-07 19:30N 57°41' E 009°15'919.0
2018-Dec-07 19:00N 57°38' E 008°59'1019.4
2018-Dec-07 18:30N 57°32' E 008°45'1019.4
2018-Dec-07 18:00N 57°26' E 008°30'1019.6
2018-Dec-07 17:30N 57°19' E 008°16'919.3
2018-Dec-07 17:00N 57°13' E 008°03'1019.6
2018-Dec-07 16:30N 57°05' E 007°53'1019.7
2018-Dec-07 16:00N 56°57' E 007°44'  
Track history (hours):
 
Tides and Currents Weather Stations Pressure Air Temp Water Temp Dewpoint Dewpoint Depression Visibility Wind Speed Wind Dir Waves Ship Positions

Venta Maersk

Last reported at 2018-Dec-17 04:30 UTC. Time now 2018-Dec-17 04:38 UTC.
Position N 53°35' E 008°09'.

Length 200 m; draft 10.2 m.

Type: Ship (hazmat cat A). MMSI: 219115000.

Date/timePositionNaut miles runAvg speedWind from/ knotsBaromVisibWave heightAir tempDewpointWater temp
2018-Dec-17 04:30N 53°35' E 008°09'0 0.5
2018-Dec-17 04:00N 53°35' E 008°10'1 2.4
2018-Dec-17 03:30N 53°36' E 008°09'510.5
2018-Dec-17 03:00N 53°41' E 008°05'816.1
2018-Dec-17 02:30N 53°48' E 007°59'714.4
2018-Dec-17 02:00N 53°52' E 007°49'612.5
2018-Dec-17 01:30N 53°55' E 007°40'18413.9
2018-Dec-16 12:18N 56°60' E 007°50'415.2
2018-Dec-16 12:00N 57°03' E 007°53'815.1
2018-Dec-16 11:30N 57°10' E 007°59'815.3
2018-Dec-16 11:00N 57°16' E 008°08'816.5
2018-Dec-16 10:30N 57°21' E 008°21'816.6
2018-Dec-16 10:00N 57°26' E 008°34'816.6
2018-Dec-16 09:30N 57°30' E 008°46'816.5
2018-Dec-16 09:00N 57°35' E 008°59'816.4
2018-Dec-16 08:30N 57°40' E 009°11'816.4
2018-Dec-16 08:00N 57°43' E 009°25'816.2
2018-Dec-16 07:30N 57°45' E 009°40'816.7
2018-Dec-16 07:00N 57°46' E 009°56'817.0
2018-Dec-16 06:30N 57°48' E 010°11'816.5
2018-Dec-16 06:00N 57°50' E 010°26'816.6
2018-Dec-16 05:30N 57°50' E 010°42'917.2
2018-Dec-16 05:00N 57°45' E 010°55'917.1
2018-Dec-16 04:30N 57°40' E 011°07'917.2
2018-Dec-16 04:00N 57°34' E 011°19'917.3
2018-Dec-16 03:30N 57°27' E 011°28'917.5
2018-Dec-16 03:00N 57°18' E 011°34'917.5
2018-Dec-16 02:30N 57°10' E 011°39'917.3
2018-Dec-16 02:00N 57°02' E 011°44'10414.9
2018-Dec-15 19:01N 55°20' E 011°02'017.6
2018-Dec-15 19:00N 55°20' E 011°02'816.0
2018-Dec-15 18:31N 55°12' E 011°05'714.8
2018-Dec-15 18:00N 55°05' E 010°59'815.3
2018-Dec-15 17:30N 54°58' E 010°57'816.6
2018-Dec-15 17:01N 54°51' E 010°50'815.4
2018-Dec-15 16:30N 54°43' E 010°47'612.4
2018-Dec-15 16:00N 54°38' E 010°53'714.5
2018-Dec-15 15:30N 54°37' E 011°05'816.1
2018-Dec-15 15:01N 54°34' E 011°18'917.7
2018-Dec-15 14:30N 54°30' E 011°32'917.4
2018-Dec-15 14:00N 54°26' E 011°46'917.5
2018-Dec-15 13:30N 54°26' E 012°01'915.1
2018-Dec-15 12:55N 54°31' E 012°13'717.0
2018-Dec-15 12:30N 54°37' E 012°20'7416.9
2018-Dec-15 08:08N 55°13' E 014°12'2716.9
2018-Dec-15 06:32N 55°30' E 014°50'117.2
2018-Dec-15 06:29N 55°30' E 014°51'817.4
2018-Dec-15 06:00N 55°34' E 015°04'917.5
2018-Dec-15 05:30N 55°38' E 015°18'917.6
2018-Dec-15 05:00N 55°43' E 015°31'917.5
2018-Dec-15 04:30N 55°47' E 015°44'917.6
2018-Dec-15 04:00N 55°53' E 015°57'917.7
2018-Dec-15 03:30N 55°58' E 016°10'918.0
2018-Dec-15 03:00N 56°02' E 016°23'917.9
2018-Dec-15 02:31N 56°07' E 016°37'917.5
2018-Dec-15 02:00N 56°12' E 016°50'917.3
2018-Dec-15 01:30N 56°17' E 017°02'  
2018-Dec-12 09:29N 59°16' E 021°56'510.0
2018-Dec-12 08:58N 59°19' E 022°04'510.2
2018-Dec-12 08:29N 59°22' E 022°11'510.3
2018-Dec-12 08:00N 59°26' E 022°19'510.4
2018-Dec-12 07:30N 59°29' E 022°26'510.2
2018-Dec-12 07:00N 59°32' E 022°34'510.0
2018-Dec-12 06:30N 59°35' E 022°42'4 7.3
2018-Dec-12 06:00N 59°33' E 022°49'510.9
2018-Dec-12 05:30N 59°35' E 022°59'611.1
2018-Dec-12 05:00N 59°36' E 023°10'511.1
2018-Dec-12 04:30N 59°38' E 023°20'611.1
2018-Dec-12 04:00N 59°39' E 023°31'611.1
2018-Dec-12 03:30N 59°41' E 023°42'611.1
2018-Dec-12 03:00N 59°42' E 023°52'511.0
2018-Dec-12 02:30N 59°44' E 024°03'611.0
2018-Dec-12 02:00N 59°45' E 024°13'511.0
2018-Dec-12 01:30N 59°47' E 024°24'510.8
2018-Dec-12 01:00N 59°48' E 024°34'510.8
2018-Dec-12 00:30N 59°50' E 024°44'510.8
2018-Dec-12 00:00N 59°51' E 024°55'510.8
2018-Dec-11 23:30N 59°52' E 025°05'510.9
2018-Dec-11 23:00N 59°53' E 025°16'510.9
2018-Dec-11 22:30N 59°53' E 025°27'510.7
2018-Dec-11 22:00N 59°54' E 025°38'510.9
2018-Dec-11 21:30N 59°55' E 025°48'711.1
2018-Dec-11 20:50N 59°58' E 026°02'611.2
2018-Dec-11 20:21N 60°01' E 026°11'411.6
2018-Dec-11 20:00N 60°03' E 026°18'611.5
2018-Dec-11 19:30N 60°06' E 026°27'611.3
2018-Dec-11 19:00N 60°10' E 026°36'611.1
2018-Dec-11 18:31N 60°13' E 026°45'713.9
2018-Dec-11 18:01N 60°19' E 026°53'612.0
2018-Dec-11 17:30N 60°25' E 026°55'0 0.7
2018-Dec-11 16:59N 60°25' E 026°55'0 0.0
2018-Dec-11 16:29N 60°25' E 026°55'0 0.0
2018-Dec-11 15:59N 60°25' E 026°55'0 0.0
2018-Dec-11 15:29N 60°25' E 026°55'0 0.0
2018-Dec-11 14:59N 60°25' E 026°55'0 0.0
2018-Dec-11 14:29N 60°25' E 026°55'0 0.0
2018-Dec-11 13:59N 60°25' E 026°55'0 0.0
2018-Dec-11 13:29N 60°25' E 026°55'0 0.0
2018-Dec-11 12:59N 60°25' E 026°55'0 0.0
2018-Dec-11 12:29N 60°25' E 026°55'0 0.0
2018-Dec-11 11:59N 60°25' E 026°55'0 0.0
2018-Dec-11 11:29N 60°25' E 026°55'0 0.0
2018-Dec-11 10:59N 60°25' E 026°55'0 0.0
2018-Dec-11 10:29N 60°25' E 026°55'0 0.0
2018-Dec-11 09:59N 60°25' E 026°55'0 0.0
2018-Dec-11 09:29N 60°25' E 026°55'0 0.0
2018-Dec-11 08:59N 60°25' E 026°55'0 0.0
2018-Dec-11 08:29N 60°25' E 026°55'0 0.0
2018-Dec-11 07:59N 60°25' E 026°55'0 0.0
2018-Dec-11 07:29N 60°25' E 026°55'0 0.0
2018-Dec-11 06:59N 60°25' E 026°55'0 0.0
2018-Dec-11 06:29N 60°25' E 026°55'0 0.0
2018-Dec-11 05:59N 60°25' E 026°55'0 0.0
2018-Dec-11 05:29N 60°25' E 026°55'0 0.0
2018-Dec-11 04:59N 60°25' E 026°55'0 0.0
2018-Dec-11 04:29N 60°25' E 026°55'0 0.0
2018-Dec-11 03:59N 60°25' E 026°55'0 0.0
2018-Dec-11 03:29N 60°25' E 026°55'0 0.0
2018-Dec-11 02:59N 60°25' E 026°55'0 0.0
2018-Dec-11 02:29N 60°25' E 026°55'0 0.0
2018-Dec-11 01:59N 60°25' E 026°55'0 0.0
2018-Dec-11 01:29N 60°25' E 026°55'0 0.0
2018-Dec-11 00:56N 60°25' E 026°55'0 0.0
2018-Dec-11 00:29N 60°25' E 026°55'0 0.0
2018-Dec-10 23:59N 60°25' E 026°55'0 0.0
2018-Dec-10 23:29N 60°25' E 026°55'0 0.0
2018-Dec-10 22:59N 60°25' E 026°55'0 0.0
2018-Dec-10 22:29N 60°25' E 026°55'0 0.0
2018-Dec-10 21:59N 60°25' E 026°55'0 0.0
2018-Dec-10 21:29N 60°25' E 026°55'0 0.0
2018-Dec-10 20:59N 60°25' E 026°55'0 0.0
2018-Dec-10 20:29N 60°25' E 026°55'0 0.0
2018-Dec-10 19:59N 60°25' E 026°55'0 0.0
2018-Dec-10 19:29N 60°25' E 026°55'0 0.0
2018-Dec-10 18:59N 60°25' E 026°55'0 0.0
2018-Dec-10 18:29N 60°25' E 026°55'0 0.0
2018-Dec-10 17:59N 60°25' E 026°55'0 0.0
2018-Dec-10 17:29N 60°25' E 026°55'0 0.0
2018-Dec-10 16:59N 60°25' E 026°55'0 0.0
2018-Dec-10 16:29N 60°25' E 026°55'0 0.0
2018-Dec-10 15:59N 60°25' E 026°55'0 0.0
2018-Dec-10 15:29N 60°25' E 026°55'0 0.0
2018-Dec-10 14:59N 60°25' E 026°55'0 0.0
2018-Dec-10 14:29N 60°25' E 026°55'0 0.0
2018-Dec-10 13:59N 60°25' E 026°55'0 0.0
2018-Dec-10 13:29N 60°25' E 026°55'0 0.0
2018-Dec-10 12:59N 60°25' E 026°55'0 0.0
2018-Dec-10 12:29N 60°25' E 026°55'0 0.0
2018-Dec-10 11:59N 60°25' E 026°55'0 0.0
2018-Dec-10 11:29N 60°25' E 026°55'0 0.0
2018-Dec-10 10:59N 60°25' E 026°55'0 0.0
2018-Dec-10 10:29N 60°25' E 026°55'0 0.0
2018-Dec-10 09:59N 60°25' E 026°55'0 0.0
2018-Dec-10 09:29N 60°25' E 026°55'0 0.0
2018-Dec-10 08:59N 60°25' E 026°55'0 0.0
2018-Dec-10 08:30N 60°25' E 026°55'1 1.8
2018-Dec-10 08:01N 60°24' E 026°54'510.6
2018-Dec-10 07:30N 60°22' E 026°44'815.6
2018-Dec-10 07:00N 60°17' E 026°32'815.2
2018-Dec-10 06:31N 60°11' E 026°22'3 6.5
2018-Dec-10 06:01N 60°09' E 026°19'3 6.1
2018-Dec-10 05:31N 60°06' E 026°15'3 6.1
2018-Dec-10 05:00N 60°04' E 026°11'13 7.7
2018-Dec-10 03:19N 59°54' E 025°55'810.1
2018-Dec-10 02:31N 59°52' E 025°39'510.3
2018-Dec-10 02:01N 59°51' E 025°29'510.5
2018-Dec-10 01:30N 59°49' E 025°19'510.4
2018-Dec-10 01:00N 59°48' E 025°09'510.4
2018-Dec-10 00:31N 59°47' E 024°59'510.3
2018-Dec-10 00:00N 59°46' E 024°49'510.2
2018-Dec-09 23:30N 59°45' E 024°39'510.1
2018-Dec-09 23:01N 59°44' E 024°29'510.3
2018-Dec-09 22:31N 59°43' E 024°19'510.3
2018-Dec-09 22:00N 59°42' E 024°09'510.2
2018-Dec-09 21:30N 59°40' E 023°60'510.6
2018-Dec-09 21:00N 59°38' E 023°50'611.1
2018-Dec-09 20:31N 59°36' E 023°40'510.9
2018-Dec-09 20:01N 59°34' E 023°30'510.7
2018-Dec-09 19:30N 59°33' E 023°20'510.8
2018-Dec-09 19:00N 59°31' E 023°09'510.6
2018-Dec-09 18:30N 59°29' E 022°59'510.5
2018-Dec-09 18:01N 59°28' E 022°49'510.1
2018-Dec-09 17:31N 59°27' E 022°40'5 9.8
2018-Dec-09 17:00N 59°25' E 022°31'26416.5
2018-Dec-09 01:00N 56°09' E 016°60'917.9
2018-Dec-09 00:30N 56°03' E 016°47'918.0
2018-Dec-09 00:01N 55°58' E 016°34'918.0
2018-Dec-08 23:30N 55°54' E 016°21'918.0
2018-Dec-08 23:00N 55°49' E 016°07'917.9
2018-Dec-08 22:30N 55°44' E 015°53'917.9
2018-Dec-08 22:01N 55°40' E 015°40'918.0
2018-Dec-08 21:31N 55°35' E 015°26'918.1
2018-Dec-08 21:00N 55°31' E 015°11'2517.9
2018-Dec-08 19:37N 55°19' E 014°33'218.2
2018-Dec-08 19:30N 55°18' E 014°30'918.0
2018-Dec-08 19:00N 55°11' E 014°21'918.1
2018-Dec-08 18:31N 55°03' E 014°12'6018.1
2018-Dec-08 15:12N 54°42' E 012°34'418.3
2018-Dec-08 14:58N 54°40' E 012°28'817.8
2018-Dec-08 14:30N 54°35' E 012°16'1217.5
2018-Dec-08 13:50N 54°25' E 012°08'618.6
2018-Dec-08 13:31N 54°24' E 011°57'917.9
2018-Dec-08 13:01N 54°26' E 011°42'918.4
2018-Dec-08 12:30N 54°30' E 011°27'1019.7
2018-Dec-08 12:00N 54°34' E 011°13'919.0
2018-Dec-08 11:30N 54°39' E 010°58'714.4
2018-Dec-08 11:00N 54°44' E 010°49'713.1
2018-Dec-08 10:30N 54°50' E 010°50'917.5
2018-Dec-08 10:00N 54°58' E 010°57'917.9
2018-Dec-08 09:30N 55°07' E 010°59'816.1
2018-Dec-08 09:00N 55°14' E 011°06'918.4
2018-Dec-08 08:30N 55°23' E 011°01'9213.9
2018-Dec-08 01:52N 56°51' E 011°47'616.9
2018-Dec-08 01:30N 56°57' E 011°44'817.0
2018-Dec-08 01:00N 57°05' E 011°39'816.6
2018-Dec-08 00:30N 57°13' E 011°34'816.7
2018-Dec-08 00:00N 57°21' E 011°28'917.5
2018-Dec-07 23:30N 57°29' E 011°21'917.9
2018-Dec-07 23:00N 57°35' E 011°09'918.9
2018-Dec-07 22:30N 57°41' E 010°56'917.7
2018-Dec-07 22:00N 57°47' E 010°43'1019.3
2018-Dec-07 21:30N 57°47' E 010°25'1019.4
2018-Dec-07 21:00N 57°46' E 010°07'1018.7
2018-Dec-07 20:30N 57°45' E 009°49'918.6
2018-Dec-07 20:00N 57°44' E 009°32'1018.9
2018-Dec-07 19:30N 57°41' E 009°15'919.0
2018-Dec-07 19:00N 57°38' E 008°59'1019.4
2018-Dec-07 18:30N 57°32' E 008°45'1019.4
2018-Dec-07 18:00N 57°26' E 008°30'1019.6
2018-Dec-07 17:30N 57°19' E 008°16'919.3
2018-Dec-07 17:00N 57°13' E 008°03'1019.6
2018-Dec-07 16:30N 57°05' E 007°53'1019.7
2018-Dec-07 16:00N 56°57' E 007°44'  

Dump ship's entire track history